VLG487 LFBD-LEBL
Flight info
| Callsign | VLG487 |
|---|---|
| Flight time | 0h 41m |
| Altitude | 33000 |
| Route | OBLOC DCT SECHE DCT AGN DCT TOU DCT LOMRA DCT ROCAN DCT PUMAL |
| Aircraft | A320/M-SDE3FGHIRWY/LB1 |
Departure
| Time | 2026-05-03 20:15 |
|---|---|
| Airport | Bordeaux–Mérignac Airport (LFBD) |
Arrival
| Time | 2026-05-03 20:56 |
|---|---|
| Airport | Josep Tarradellas Barcelona-El Prat Airport (LEBL) |
| Time | Latitude | Longitude | Altitude | Speed | Heading |
|---|---|---|---|---|---|
| 2026-05-03 20:15 | 44.79057 | -0.76952 | 2618 ft | 202 kts | 226° |
| 2026-05-03 20:15 | 44.78021 | -0.78439 | 3030 ft | 224 kts | 226° |
| 2026-05-03 20:15 | 44.76748 | -0.79850 | 3619 ft | 246 kts | 208° |
| 2026-05-03 20:15 | 44.75055 | -0.80571 | 4340 ft | 263 kts | 186° |
| 2026-05-03 20:16 | 44.73215 | -0.80319 | 5337 ft | 271 kts | 163° |
| 2026-05-03 20:16 | 44.71549 | -0.79062 | 6359 ft | 277 kts | 140° |
| 2026-05-03 20:16 | 44.70353 | -0.76934 | 7376 ft | 282 kts | 115° |
| 2026-05-03 20:16 | 44.69809 | -0.74274 | 8371 ft | 286 kts | 101° |
| 2026-05-03 20:17 | 44.69262 | -0.71576 | 9346 ft | 289 kts | 112° |
| 2026-05-03 20:17 | 44.68321 | -0.69062 | 10269 ft | 293 kts | 125° |
| 2026-05-03 20:17 | 44.67116 | -0.66644 | 10810 ft | 314 kts | 120° |
| 2026-05-03 20:17 | 44.66211 | -0.63731 | 11145 ft | 338 kts | 110° |
| 2026-05-03 20:18 | 44.65050 | -0.60752 | 11406 ft | 361 kts | 130° |
| 2026-05-03 20:18 | 44.63217 | -0.58205 | 11770 ft | 379 kts | 140° |
| 2026-05-03 20:18 | 44.61142 | -0.55852 | 12494 ft | 386 kts | 143° |
| 2026-05-03 20:18 | 44.58990 | -0.53573 | 13285 ft | 390 kts | 143° |
| 2026-05-03 20:19 | 44.56816 | -0.51252 | 14067 ft | 395 kts | 142° |
| 2026-05-03 20:19 | 44.54647 | -0.48840 | 14845 ft | 400 kts | 141° |
| 2026-05-03 20:19 | 44.52498 | -0.46345 | 15597 ft | 404 kts | 140° |
| 2026-05-03 20:19 | 44.50345 | -0.43772 | 16331 ft | 408 kts | 140° |
| 2026-05-03 20:20 | 44.48190 | -0.41155 | 17037 ft | 413 kts | 139° |
| 2026-05-03 20:20 | 44.45989 | -0.38467 | 17727 ft | 417 kts | 139° |
| 2026-05-03 20:20 | 44.43783 | -0.35789 | 18377 ft | 421 kts | 139° |
| 2026-05-03 20:20 | 44.41560 | -0.33108 | 19009 ft | 425 kts | 140° |
| 2026-05-03 20:21 | 44.39306 | -0.30408 | 19624 ft | 429 kts | 140° |
| 2026-05-03 20:21 | 44.37027 | -0.27692 | 20218 ft | 433 kts | 140° |
| 2026-05-03 20:21 | 44.34724 | -0.24951 | 20785 ft | 436 kts | 140° |
| 2026-05-03 20:21 | 44.32404 | -0.22195 | 21324 ft | 440 kts | 140° |
| 2026-05-03 20:22 | 44.30073 | -0.19429 | 21834 ft | 443 kts | 140° |
| 2026-05-03 20:22 | 44.27712 | -0.16626 | 22342 ft | 446 kts | 140° |
| 2026-05-03 20:22 | 44.25342 | -0.13810 | 22832 ft | 450 kts | 140° |
| 2026-05-03 20:22 | 44.22948 | -0.10969 | 23326 ft | 453 kts | 140° |
| 2026-05-03 20:23 | 44.20536 | -0.08111 | 23814 ft | 456 kts | 140° |
| 2026-05-03 20:23 | 44.18109 | -0.05238 | 24274 ft | 459 kts | 140° |
| 2026-05-03 20:23 | 44.15663 | -0.02345 | 24723 ft | 463 kts | 140° |
| 2026-05-03 20:23 | 44.13203 | 0.00560 | 25156 ft | 466 kts | 140° |
| 2026-05-03 20:24 | 44.10722 | 0.03485 | 25584 ft | 469 kts | 140° |
| 2026-05-03 20:24 | 44.08229 | 0.06417 | 26004 ft | 472 kts | 140° |
| 2026-05-03 20:24 | 44.05713 | 0.09375 | 26407 ft | 474 kts | 140° |
| 2026-05-03 20:24 | 44.03186 | 0.12343 | 26822 ft | 477 kts | 140° |
| 2026-05-03 20:25 | 44.00640 | 0.15328 | 27209 ft | 480 kts | 140° |
| 2026-05-03 20:25 | 43.98063 | 0.18348 | 27720 ft | 478 kts | 140° |
| 2026-05-03 20:25 | 43.96382 | 0.20320 | 28071 ft | 477 kts | 140° |
| 2026-05-03 20:25 | 43.93845 | 0.23297 | 28568 ft | 476 kts | 140° |
| 2026-05-03 20:26 | 43.91322 | 0.26256 | 29045 ft | 475 kts | 140° |
| 2026-05-03 20:26 | 43.88799 | 0.29207 | 29526 ft | 474 kts | 140° |
| 2026-05-03 20:26 | 43.86276 | 0.32149 | 30022 ft | 473 kts | 140° |
| 2026-05-03 20:26 | 43.83757 | 0.35083 | 30479 ft | 472 kts | 140° |
| 2026-05-03 20:27 | 43.81244 | 0.38008 | 30940 ft | 471 kts | 140° |
| 2026-05-03 20:27 | 43.78733 | 0.40928 | 31415 ft | 470 kts | 140° |
| 2026-05-03 20:27 | 43.76229 | 0.43835 | 31873 ft | 470 kts | 140° |
| 2026-05-03 20:27 | 43.73728 | 0.46731 | 32323 ft | 469 kts | 140° |
| 2026-05-03 20:28 | 43.71229 | 0.49619 | 32761 ft | 468 kts | 140° |
| 2026-05-03 20:28 | 43.68730 | 0.52502 | 32958 ft | 468 kts | 140° |
| 2026-05-03 20:28 | 43.66235 | 0.55382 | 33011 ft | 468 kts | 140° |
| 2026-05-03 20:29 | 43.61246 | 0.61134 | 33010 ft | 467 kts | 140° |
| 2026-05-03 20:29 | 43.56222 | 0.66927 | 33009 ft | 467 kts | 140° |
| 2026-05-03 20:30 | 43.51232 | 0.72670 | 33010 ft | 467 kts | 140° |
| 2026-05-03 20:30 | 43.46238 | 0.78393 | 33008 ft | 467 kts | 141° |
| 2026-05-03 20:31 | 43.41242 | 0.84097 | 33007 ft | 467 kts | 141° |
| 2026-05-03 20:31 | 43.36233 | 0.89804 | 33006 ft | 467 kts | 141° |
| 2026-05-03 20:32 | 43.31226 | 0.95502 | 33006 ft | 468 kts | 141° |
| 2026-05-03 20:32 | 43.26218 | 1.01212 | 33007 ft | 468 kts | 141° |
| 2026-05-03 20:33 | 43.21204 | 1.06903 | 33006 ft | 468 kts | 141° |
| 2026-05-03 20:33 | 43.16188 | 1.12565 | 33005 ft | 467 kts | 141° |
| 2026-05-03 20:34 | 43.11164 | 1.18220 | 33003 ft | 468 kts | 141° |
| 2026-05-03 20:34 | 43.06142 | 1.23873 | 32999 ft | 468 kts | 141° |
| 2026-05-03 20:35 | 43.01110 | 1.29528 | 32998 ft | 469 kts | 141° |
| 2026-05-03 20:35 | 42.96069 | 1.35187 | 32999 ft | 469 kts | 141° |
| 2026-05-03 20:36 | 42.91014 | 1.40853 | 32978 ft | 470 kts | 141° |
| 2026-05-03 20:36 | 42.85941 | 1.46518 | 32977 ft | 472 kts | 141° |
| 2026-05-03 20:37 | 42.80845 | 1.52175 | 32986 ft | 473 kts | 141° |
| 2026-05-03 20:37 | 42.75704 | 1.57881 | 33011 ft | 474 kts | 141° |
| 2026-05-03 20:38 | 42.70594 | 1.63558 | 32996 ft | 474 kts | 141° |
| 2026-05-03 20:38 | 42.65465 | 1.69240 | 32344 ft | 476 kts | 141° |
| 2026-05-03 20:38 | 42.62900 | 1.72075 | 31138 ft | 473 kts | 141° |
| 2026-05-03 20:39 | 42.60360 | 1.74877 | 30132 ft | 472 kts | 141° |
| 2026-05-03 20:39 | 42.57790 | 1.77707 | 28905 ft | 480 kts | 141° |
| 2026-05-03 20:39 | 42.55171 | 1.80585 | 27699 ft | 487 kts | 141° |
| 2026-05-03 20:39 | 42.52530 | 1.83484 | 26413 ft | 492 kts | 141° |
| 2026-05-03 20:40 | 42.49855 | 1.86418 | 25105 ft | 497 kts | 141° |
| 2026-05-03 20:40 | 42.47164 | 1.89370 | 23985 ft | 497 kts | 141° |
| 2026-05-03 20:40 | 42.44512 | 1.92277 | 23428 ft | 483 kts | 141° |
| 2026-05-03 20:40 | 42.41947 | 1.95087 | 23095 ft | 465 kts | 141° |
| 2026-05-03 20:41 | 42.39477 | 1.97787 | 22842 ft | 448 kts | 141° |
| 2026-05-03 20:41 | 42.37088 | 2.00385 | 22590 ft | 432 kts | 143° |
| 2026-05-03 20:41 | 42.34656 | 2.02610 | 22347 ft | 419 kts | 147° |
| 2026-05-03 20:41 | 42.32233 | 2.04724 | 22090 ft | 407 kts | 147° |
| 2026-05-03 20:42 | 42.29875 | 2.06780 | 21838 ft | 399 kts | 147° |
| 2026-05-03 20:42 | 42.27555 | 2.08804 | 21383 ft | 397 kts | 147° |
| 2026-05-03 20:42 | 42.25192 | 2.10705 | 20956 ft | 392 kts | 156° |
| 2026-05-03 20:42 | 42.22624 | 2.11786 | 20698 ft | 385 kts | 169° |
| 2026-05-03 20:43 | 42.19997 | 2.12472 | 20448 ft | 383 kts | 170° |
| 2026-05-03 20:43 | 42.17380 | 2.13130 | 20198 ft | 382 kts | 170° |
| 2026-05-03 20:43 | 42.14773 | 2.13773 | 19948 ft | 380 kts | 170° |
| 2026-05-03 20:43 | 42.12172 | 2.14409 | 19698 ft | 379 kts | 170° |
| 2026-05-03 20:44 | 42.09548 | 2.15048 | 19444 ft | 377 kts | 170° |
| 2026-05-03 20:44 | 42.07009 | 2.15668 | 19107 ft | 375 kts | 170° |
| 2026-05-03 20:44 | 42.04428 | 2.16301 | 18392 ft | 378 kts | 170° |
| 2026-05-03 20:44 | 42.01840 | 2.16939 | 17903 ft | 369 kts | 170° |
| 2026-05-03 20:45 | 41.99329 | 2.17562 | 16953 ft | 364 kts | 170° |
| 2026-05-03 20:45 | 41.96853 | 2.18179 | 16019 ft | 360 kts | 170° |
| 2026-05-03 20:45 | 41.94402 | 2.18787 | 15132 ft | 355 kts | 170° |
| 2026-05-03 20:45 | 41.92002 | 2.19378 | 14420 ft | 349 kts | 170° |
| 2026-05-03 20:46 | 41.89608 | 2.19966 | 13795 ft | 350 kts | 170° |
| 2026-05-03 20:46 | 41.87214 | 2.20557 | 13190 ft | 351 kts | 170° |
| 2026-05-03 20:46 | 41.84844 | 2.21142 | 12715 ft | 341 kts | 170° |
| 2026-05-03 20:46 | 41.82525 | 2.21713 | 11823 ft | 337 kts | 170° |
| 2026-05-03 20:47 | 41.80236 | 2.22276 | 11098 ft | 330 kts | 170° |
| 2026-05-03 20:47 | 41.78012 | 2.22820 | 10467 ft | 321 kts | 170° |
| 2026-05-03 20:47 | 41.75845 | 2.23348 | 10240 ft | 311 kts | 170° |
| 2026-05-03 20:47 | 41.73759 | 2.23856 | 10108 ft | 300 kts | 170° |
| 2026-05-03 20:48 | 41.71724 | 2.24352 | 9854 ft | 294 kts | 170° |
| 2026-05-03 20:48 | 41.69729 | 2.24839 | 9727 ft | 291 kts | 170° |
| 2026-05-03 20:48 | 41.67735 | 2.25325 | 9351 ft | 294 kts | 170° |
| 2026-05-03 20:48 | 41.65729 | 2.25813 | 9061 ft | 291 kts | 170° |
| 2026-05-03 20:49 | 41.63757 | 2.26293 | 8531 ft | 287 kts | 170° |
| 2026-05-03 20:49 | 41.61797 | 2.26768 | 7895 ft | 285 kts | 171° |
| 2026-05-03 20:49 | 41.59850 | 2.27241 | 7259 ft | 283 kts | 170° |
| 2026-05-03 20:49 | 41.57927 | 2.27711 | 6706 ft | 279 kts | 170° |
| 2026-05-03 20:50 | 41.56035 | 2.28172 | 6184 ft | 274 kts | 171° |
| 2026-05-03 20:50 | 41.54170 | 2.28626 | 5645 ft | 271 kts | 171° |
| 2026-05-03 20:50 | 41.52318 | 2.29079 | 5135 ft | 273 kts | 170° |
| 2026-05-03 20:50 | 41.50437 | 2.29537 | 4750 ft | 274 kts | 170° |
| 2026-05-03 20:51 | 41.48579 | 2.29988 | 4402 ft | 269 kts | 171° |
| 2026-05-03 20:51 | 41.46735 | 2.30433 | 3780 ft | 268 kts | 171° |
| 2026-05-03 20:51 | 41.44887 | 2.30879 | 3176 ft | 266 kts | 171° |
| 2026-05-03 20:51 | 41.43116 | 2.31309 | 2925 ft | 256 kts | 171° |
| 2026-05-03 20:52 | 41.41385 | 2.31728 | 2857 ft | 244 kts | 171° |
| 2026-05-03 20:52 | 41.39761 | 2.31922 | 2766 ft | 232 kts | 188° |
| 2026-05-03 20:52 | 41.38279 | 2.31232 | 2672 ft | 219 kts | 214° |
| 2026-05-03 20:52 | 41.37241 | 2.29847 | 2569 ft | 207 kts | 239° |
| 2026-05-03 20:53 | 41.36625 | 2.28147 | 2480 ft | 203 kts | 246° |
| 2026-05-03 20:53 | 41.36049 | 2.26445 | 2388 ft | 202 kts | 246° |
| 2026-05-03 20:53 | 41.35469 | 2.24739 | 2280 ft | 202 kts | 246° |
| 2026-05-03 20:53 | 41.34897 | 2.23056 | 2073 ft | 197 kts | 246° |
| 2026-05-03 20:54 | 41.34342 | 2.21428 | 1819 ft | 189 kts | 246° |
| 2026-05-03 20:54 | 41.33334 | 2.18471 | 1348 ft | 158 kts | 246° |
| 2026-05-03 20:54 | 41.32907 | 2.17218 | 1149 ft | 141 kts | 246° |
| 2026-05-03 20:55 | 41.32512 | 2.16060 | 963 ft | 135 kts | 246° |
| 2026-05-03 20:55 | 41.32126 | 2.14927 | 789 ft | 133 kts | 246° |
| 2026-05-03 20:55 | 41.31745 | 2.13811 | 624 ft | 132 kts | 246° |
| 2026-05-03 20:55 | 41.31365 | 2.12699 | 437 ft | 132 kts | 246° |
| 2026-05-03 20:56 | 41.30984 | 2.11582 | 264 ft | 132 kts | 246° |
| 2026-05-03 20:56 | 41.30607 | 2.10478 | 91 ft | 132 kts | 246° |
| 2026-05-03 20:56 | 41.30240 | 2.09402 | 22 ft | 112 kts | 246° |
| 2026-05-03 20:56 | 41.30084 | 2.08920 | 19 ft | 25 kts | 247° |
| 2026-05-03 20:57 | 41.30056 | 2.08695 | 22 ft | 25 kts | 271° |
| 2026-05-03 20:57 | 41.30057 | 2.08648 | 22 ft | 0 kts | 272° |
| 2026-05-03 20:58 | 41.30057 | 2.08646 | 22 ft | 1 kts | 272° |
| 2026-05-03 20:58 | 41.30061 | 2.08588 | 21 ft | 10 kts | 276° |
| 2026-05-03 20:58 | 41.30115 | 2.08495 | 19 ft | 15 kts | 328° |
| 2026-05-03 20:58 | 41.30227 | 2.08469 | 18 ft | 18 kts | 333° |
| 2026-05-03 20:59 | 41.30281 | 2.08355 | 19 ft | 11 kts | 298° |
| 2026-05-03 20:59 | 41.30335 | 2.08319 | 21 ft | 4 kts | 344° |
| 2026-05-03 20:59 | 41.30356 | 2.08312 | 21 ft | 6 kts | 347° |
| 2026-05-03 20:59 | 41.30369 | 2.08308 | 22 ft | 0 kts | 348° |